createdAt,value
2019-02-28T00:01:50.010Z,27.87
2019-02-28T00:04:15.556Z,28.10
2019-02-28T00:06:43.979Z,28.20
2019-02-28T00:09:08.564Z,29.43
2019-02-28T00:11:36.086Z,26.87
2019-02-28T00:14:03.582Z,28.20
2019-02-28T00:16:29.282Z,28.00
2019-02-28T00:18:55.959Z,27.20
2019-02-28T00:21:21.503Z,29.50
2019-02-28T00:23:47.029Z,31.00
2019-02-28T00:26:12.554Z,30.63
2019-02-28T00:28:38.071Z,30.30
2019-02-28T00:31:03.802Z,31.63
2019-02-28T00:33:30.893Z,29.17
2019-02-28T00:35:56.948Z,29.50
2019-02-28T00:38:22.503Z,30.87
2019-02-28T00:40:48.051Z,29.30
2019-02-28T00:43:13.656Z,30.20
2019-02-28T00:45:39.174Z,31.20
2019-02-28T00:48:04.712Z,33.33
2019-02-28T00:50:30.241Z,32.57
2019-02-28T00:52:55.895Z,32.83
2019-02-28T00:55:21.432Z,34.53
2019-02-28T00:57:47.554Z,36.20
2019-02-28T01:00:18.125Z,35.97
2019-02-28T01:02:43.641Z,38.30
2019-02-28T01:05:09.184Z,36.90
2019-02-28T01:07:34.793Z,37.90
2019-02-28T01:10:01.331Z,39.47
2019-02-28T01:12:27.812Z,37.63
2019-02-28T01:14:53.374Z,37.97
2019-02-28T01:17:18.900Z,37.03
2019-02-28T01:19:44.498Z,35.70
2019-02-28T01:22:10.023Z,37.87
2019-02-28T01:24:35.544Z,38.63
2019-02-28T01:27:01.759Z,38.20
2019-02-28T01:29:27.307Z,38.70
2019-02-28T01:31:52.867Z,39.33
2019-02-28T01:34:18.547Z,39.47
2019-02-28T01:36:45.903Z,41.93
2019-02-28T01:39:21.667Z,39.90
2019-02-28T01:41:49.164Z,38.90
2019-02-28T01:44:14.755Z,39.07
2019-02-28T01:46:40.343Z,39.93
2019-02-28T01:49:05.897Z,40.70
2019-02-28T01:51:35.720Z,40.77
2019-02-28T01:53:58.895Z,41.43
2019-02-28T01:56:24.442Z,38.90
2019-02-28T01:58:50.389Z,39.60
2019-02-28T02:01:16.619Z,38.60
2019-02-28T02:03:42.182Z,41.67
2019-02-28T02:06:07.704Z,40.17
2019-02-28T02:08:33.614Z,40.33
2019-02-28T02:10:59.431Z,41.70
2019-02-28T02:13:25.014Z,42.50
2019-02-28T02:15:51.455Z,41.80
2019-02-28T02:18:17.756Z,42.23
2019-02-28T02:20:43.385Z,43.73
2019-02-28T02:23:09.895Z,41.20
2019-02-28T02:25:37.523Z,43.07
2019-02-28T02:28:02.883Z,42.37
2019-02-28T02:30:28.401Z,42.03
2019-02-28T02:32:54.115Z,43.00
2019-02-28T02:35:19.876Z,42.43
2019-02-28T02:37:45.414Z,42.67
2019-02-28T02:40:12.011Z,42.53
2019-02-28T02:42:37.567Z,40.83
2019-02-28T02:45:05.613Z,41.73
2019-02-28T02:47:32.616Z,41.80
2019-02-28T02:49:58.222Z,39.63
2019-02-28T02:52:29.960Z,42.87
2019-02-28T02:54:52.896Z,40.30
2019-02-28T02:57:18.667Z,42.97
2019-02-28T02:59:44.232Z,43.20
2019-02-28T03:02:09.780Z,45.30
2019-02-28T03:04:35.575Z,43.00
2019-02-28T03:07:01.116Z,43.17
2019-02-28T03:09:26.706Z,42.93
2019-02-28T03:11:52.368Z,43.33
2019-02-28T03:14:17.896Z,43.17
2019-02-28T03:16:43.423Z,40.10
2019-02-28T03:19:09.274Z,42.43
2019-02-28T03:21:34.819Z,41.47
2019-02-28T03:24:00.369Z,43.67
2019-02-28T03:26:25.918Z,43.30
2019-02-28T03:28:51.441Z,43.63
2019-02-28T03:31:19.055Z,44.40
2019-02-28T03:33:44.653Z,46.97
2019-02-28T03:36:10.223Z,43.23
2019-02-28T03:38:35.855Z,44.93
2019-02-28T03:41:01.379Z,46.13
2019-02-28T03:43:26.895Z,45.30
2019-02-28T03:45:52.837Z,47.40
2019-02-28T03:48:18.468Z,47.20
2019-02-28T03:50:43.995Z,48.40
2019-02-28T03:53:09.621Z,50.57
2019-02-28T03:55:40.068Z,47.50
2019-02-28T03:58:05.463Z,48.67
2019-02-28T04:00:33.957Z,44.37
2019-02-28T04:02:59.064Z,47.70
2019-02-28T04:05:28.036Z,46.00
2019-02-28T04:07:54.786Z,47.43
2019-02-28T04:10:22.087Z,47.03
2019-02-28T04:12:48.109Z,48.43
2019-02-28T04:15:15.550Z,46.00
2019-02-28T04:17:42.227Z,47.50
2019-02-28T04:20:08.075Z,50.53
2019-02-28T04:22:33.655Z,50.73
2019-02-28T04:24:59.175Z,50.60
2019-02-28T04:27:24.718Z,47.73
2019-02-28T04:29:50.252Z,47.00
2019-02-28T04:32:15.776Z,50.67
2019-02-28T04:34:41.409Z,49.60
2019-02-28T04:37:08.593Z,50.70
2019-02-28T04:39:34.391Z,48.23
2019-02-28T04:41:59.923Z,50.47
2019-02-28T04:44:25.535Z,49.30
2019-02-28T04:46:51.055Z,51.90
2019-02-28T04:49:21.741Z,48.43
2019-02-28T04:51:44.063Z,52.00
2019-02-28T04:54:09.610Z,49.17
2019-02-28T04:56:35.141Z,51.07
2019-02-28T04:59:00.692Z,48.77
2019-02-28T05:01:26.261Z,51.60
2019-02-28T05:03:52.756Z,49.50
2019-02-28T05:06:21.153Z,51.27
2019-02-28T05:08:45.875Z,51.77
2019-02-28T05:11:11.430Z,52.40
2019-02-28T05:13:36.996Z,53.23
2019-02-28T05:16:02.535Z,51.37
2019-02-28T05:18:28.248Z,51.67
2019-02-28T05:20:54.331Z,53.97
2019-02-28T05:23:19.854Z,53.40
2019-02-28T05:25:45.379Z,50.57
2019-02-28T05:28:11.019Z,51.23
2019-02-28T05:30:36.530Z,53.63
2019-02-28T05:33:02.053Z,53.07
2019-02-28T05:35:27.575Z,51.77
2019-02-28T05:37:53.123Z,51.67
2019-02-28T05:40:18.627Z,52.57
2019-02-28T05:42:44.191Z,49.53
2019-02-28T05:45:11.368Z,52.73
2019-02-28T05:47:46.212Z,52.03
2019-02-28T05:50:06.434Z,52.17
2019-02-28T05:52:33.729Z,53.50
2019-02-28T05:55:00.707Z,52.77
2019-02-28T05:57:25.883Z,51.50
2019-02-28T05:59:51.112Z,53.00
2019-02-28T06:02:18.880Z,52.33
2019-02-28T06:04:43.519Z,53.13
2019-02-28T06:07:09.418Z,53.97
2019-02-28T06:09:34.761Z,53.20
2019-02-28T06:12:00.538Z,53.10
2019-02-28T06:14:27.755Z,53.70
2019-02-28T06:16:53.586Z,54.20
2019-02-28T06:19:20.365Z,53.47
2019-02-28T06:21:46.003Z,54.90
2019-02-28T06:24:12.750Z,55.97
2019-02-28T06:26:39.009Z,54.47
2019-02-28T06:29:05.720Z,55.53
2019-02-28T06:31:32.030Z,52.10
2019-02-28T06:33:57.575Z,53.70
2019-02-28T06:36:25.685Z,55.10
2019-02-28T06:38:51.463Z,57.17
2019-02-28T06:41:18.059Z,56.97
2019-02-28T06:43:44.306Z,55.00
2019-02-28T06:46:10.034Z,58.10
2019-02-28T06:48:35.664Z,58.47
2019-02-28T06:51:01.323Z,58.13
2019-02-28T06:53:31.058Z,58.03
2019-02-28T06:55:56.029Z,54.70
2019-02-28T06:58:21.863Z,57.80
2019-02-28T07:00:48.412Z,58.73
2019-02-28T07:03:14.826Z,62.40
2019-02-28T07:05:40.626Z,62.10
2019-02-28T07:08:06.881Z,60.40
2019-02-28T07:10:32.408Z,63.17
2019-02-28T07:12:57.935Z,64.60
2019-02-28T07:15:24.901Z,64.13
2019-02-28T07:17:50.557Z,62.33
2019-02-28T07:20:16.775Z,64.60
2019-02-28T07:22:42.531Z,61.57
2019-02-28T07:25:09.460Z,64.93
2019-02-28T07:27:36.221Z,68.10
2019-02-28T07:30:02.744Z,66.10
2019-02-28T07:32:31.234Z,64.30
2019-02-28T07:34:58.164Z,65.43
2019-02-28T07:37:23.425Z,65.73
2019-02-28T07:39:48.950Z,64.43
2019-02-28T07:42:14.659Z,66.67
2019-02-28T07:44:40.223Z,68.70
2019-02-28T07:47:05.979Z,65.50
2019-02-28T07:49:35.852Z,61.90
2019-02-28T07:51:58.985Z,64.30
2019-02-28T07:54:24.762Z,64.10
2019-02-28T07:56:50.411Z,62.00
2019-02-28T07:59:15.962Z,63.93
2019-02-28T08:01:41.539Z,63.10
2019-02-28T08:04:07.145Z,63.23
2019-02-28T08:06:32.675Z,62.60
2019-02-28T08:08:58.211Z,64.97
2019-02-28T08:11:23.719Z,64.93
2019-02-28T08:13:50.222Z,61.33
2019-02-28T08:16:15.769Z,64.20
2019-02-28T08:18:41.299Z,65.27
2019-02-28T08:21:08.721Z,66.37
2019-02-28T08:23:34.271Z,66.40
2019-02-28T08:25:59.831Z,61.80
2019-02-28T08:28:25.355Z,63.87
2019-02-28T08:30:54.745Z,62.30
2019-02-28T08:33:18.451Z,63.67
2019-02-28T08:35:44.011Z,58.30
2019-02-28T08:38:09.531Z,60.70
2019-02-28T08:40:35.082Z,57.03
2019-02-28T08:43:00.612Z,55.60
2019-02-28T08:45:26.190Z,53.00
2019-02-28T08:47:55.250Z,49.10
2019-02-28T08:50:23.442Z,49.87
2019-02-28T08:52:50.042Z,51.50
2019-02-28T08:55:15.561Z,49.67
2019-02-28T08:57:41.207Z,51.07
2019-02-28T09:00:08.648Z,51.50
2019-02-28T09:02:34.648Z,48.03
2019-02-28T09:05:00.367Z,47.67
2019-02-28T09:07:25.999Z,43.83
2019-02-28T09:09:51.532Z,46.23
2019-02-28T09:12:17.127Z,42.17
2019-02-28T09:14:42.699Z,40.90
2019-02-28T09:17:08.425Z,38.40
2019-02-28T09:19:36.147Z,38.43
2019-02-28T09:22:01.420Z,38.33
2019-02-28T09:24:27.055Z,39.17
2019-02-28T09:26:52.626Z,35.87
2019-02-28T09:29:18.341Z,31.23
2019-02-28T09:31:45.582Z,33.93
2019-02-28T09:34:11.246Z,30.20
2019-02-28T09:36:36.766Z,30.70
2019-02-28T09:39:04.095Z,30.80
2019-02-28T09:41:30.522Z,28.37
2019-02-28T09:43:56.889Z,29.77
2019-02-28T09:46:23.766Z,28.50
2019-02-28T09:48:49.313Z,26.90
2019-02-28T09:51:14.883Z,26.03
2019-02-28T09:53:40.425Z,25.60
2019-02-28T09:56:08.905Z,25.60
2019-02-28T09:58:33.423Z,22.10
2019-02-28T10:00:59.055Z,22.17
2019-02-28T10:03:24.580Z,22.77
2019-02-28T10:05:50.108Z,23.53
2019-02-28T10:08:15.748Z,22.77
2019-02-28T10:10:41.303Z,22.77
2019-02-28T10:13:06.835Z,22.90
2019-02-28T10:15:32.364Z,24.50
2019-02-28T10:18:00.768Z,22.03
2019-02-28T10:20:28.493Z,23.70
2019-02-28T10:22:54.673Z,22.80
2019-02-28T10:25:20.383Z,21.43
2019-02-28T10:27:46.031Z,23.50
2019-02-28T10:30:15.776Z,22.10
2019-02-28T10:32:43.376Z,23.00
2019-02-28T10:35:08.280Z,23.60
2019-02-28T10:37:35.594Z,21.00
2019-02-28T10:40:01.383Z,21.67
2019-02-28T10:42:26.935Z,23.80
2019-02-28T10:44:52.491Z,22.00
2019-02-28T10:47:18.113Z,20.43
2019-02-28T10:49:43.718Z,22.07
2019-02-28T10:52:09.279Z,20.57
2019-02-28T10:54:34.845Z,21.23
2019-02-28T10:57:03.019Z,19.73
2019-02-28T10:59:28.315Z,19.93
2019-02-28T11:01:53.974Z,20.10
2019-02-28T11:04:19.673Z,19.03
2019-02-28T11:06:46.809Z,20.90
2019-02-28T11:09:14.542Z,20.20
2019-02-28T11:11:42.595Z,20.60
2019-02-28T11:14:08.875Z,21.70
2019-02-28T11:16:36.097Z,20.93
2019-02-28T11:19:01.831Z,21.70
2019-02-28T11:21:29.744Z,21.37
2019-02-28T11:23:55.087Z,21.97
2019-02-28T11:26:20.648Z,24.23
2019-02-28T11:28:46.270Z,22.27
2019-02-28T11:31:12.223Z,21.40
2019-02-28T11:33:39.539Z,21.57
2019-02-28T11:36:05.203Z,20.50
2019-02-28T11:38:30.781Z,19.53
2019-02-28T11:40:57.517Z,19.83
2019-02-28T11:43:23.371Z,18.77
2019-02-28T11:45:49.547Z,18.57
2019-02-28T11:48:20.115Z,20.30
2019-02-28T11:50:44.962Z,19.90
2019-02-28T11:53:10.699Z,18.57
2019-02-28T11:55:36.232Z,19.20
2019-02-28T11:58:01.891Z,22.47
2019-02-28T12:00:32.606Z,20.63
2019-02-28T12:03:00.719Z,21.50
2019-02-28T12:05:25.472Z,20.50
2019-02-28T12:07:51.160Z,20.07
2019-02-28T12:10:17.058Z,22.07
2019-02-28T12:12:44.688Z,20.40
2019-02-28T12:15:11.974Z,22.10
2019-02-28T12:17:37.518Z,24.37
2019-02-28T12:20:06.031Z,25.90
2019-02-28T12:22:31.666Z,22.10
2019-02-28T12:24:57.204Z,24.67
2019-02-28T12:27:24.421Z,21.87
2019-02-28T12:29:50.567Z,19.97
2019-02-28T12:32:16.107Z,21.13
2019-02-28T12:34:41.667Z,22.17
2019-02-28T12:37:07.224Z,19.17
2019-02-28T12:39:33.373Z,17.60
2019-02-28T12:42:00.395Z,17.97
2019-02-28T12:44:26.104Z,20.13
2019-02-28T12:46:52.701Z,20.00
2019-02-28T12:49:21.838Z,23.47
2019-02-28T12:51:45.811Z,24.70
2019-02-28T12:54:11.355Z,24.27
2019-02-28T12:56:37.015Z,24.33
2019-02-28T12:59:02.649Z,20.50
2019-02-28T13:01:28.224Z,19.30
2019-02-28T13:03:57.756Z,18.47
2019-02-28T13:06:23.742Z,18.37
2019-02-28T13:08:48.647Z,18.90
2019-02-28T13:11:14.191Z,18.37
2019-02-28T13:13:40.825Z,17.50
2019-02-28T13:16:06.359Z,17.90
2019-02-28T13:18:32.212Z,20.60
2019-02-28T13:20:57.737Z,23.93
2019-02-28T13:23:23.331Z,25.03
2019-02-28T13:25:49.881Z,26.60
2019-02-28T13:28:18.164Z,28.27
2019-02-28T13:30:49.315Z,25.77
2019-02-28T13:33:11.103Z,28.27
2019-02-28T13:35:45.657Z,25.40
2019-02-28T13:38:07.099Z,27.37
2019-02-28T13:40:32.664Z,25.20
2019-02-28T13:42:58.363Z,26.10
2019-02-28T13:45:24.228Z,22.97
2019-02-28T13:47:49.770Z,23.17
2019-02-28T13:50:32.585Z,23.73
2019-02-28T13:53:03.641Z,27.13
2019-02-28T13:55:25.882Z,26.23
2019-02-28T13:57:51.462Z,26.67
2019-02-28T14:00:24.597Z,21.87
2019-02-28T14:02:51.225Z,21.37
2019-02-28T14:05:16.851Z,21.87
2019-02-28T14:07:42.744Z,26.70
2019-02-28T14:10:11.518Z,22.60
2019-02-28T14:12:37.483Z,22.47
2019-02-28T14:15:04.251Z,20.50
2019-02-28T14:17:32.537Z,19.50
2019-02-28T14:19:57.719Z,17.47
2019-02-28T14:22:24.379Z,18.73
2019-02-28T14:24:50.085Z,19.10
2019-02-28T14:27:15.760Z,17.63
2019-02-28T14:29:43.019Z,18.33
2019-02-28T14:32:08.941Z,19.33
2019-02-28T14:34:34.499Z,19.03
2019-02-28T14:37:00.083Z,20.67
2019-02-28T14:39:25.668Z,20.07
2019-02-28T14:41:51.299Z,22.00
2019-02-28T14:44:17.869Z,23.80
2019-02-28T14:46:43.411Z,22.80
2019-02-28T14:49:12.588Z,21.83
2019-02-28T14:51:36.609Z,19.27
2019-02-28T14:54:02.285Z,18.07
2019-02-28T14:56:27.894Z,18.93
2019-02-28T14:58:56.081Z,16.63
2019-02-28T15:01:20.889Z,17.00
2019-02-28T15:03:47.444Z,16.67
2019-02-28T15:06:12.992Z,16.80
2019-02-28T15:08:38.527Z,15.73
2019-02-28T15:11:06.441Z,15.43
2019-02-28T15:13:33.484Z,16.23
2019-02-28T15:15:59.236Z,16.40
2019-02-28T15:18:26.776Z,18.30
2019-02-28T15:20:52.524Z,18.27
2019-02-28T15:23:18.095Z,15.00
2019-02-28T15:25:43.651Z,16.47
2019-02-28T15:28:10.721Z,15.37
2019-02-28T15:30:37.655Z,16.37
2019-02-28T15:33:03.307Z,15.93
2019-02-28T15:35:29.021Z,15.30
2019-02-28T15:37:54.642Z,15.90
2019-02-28T15:40:21.543Z,16.70
2019-02-28T15:42:48.870Z,15.80
2019-02-28T15:45:14.530Z,14.23
2019-02-28T15:47:40.047Z,15.63
2019-02-28T15:50:07.421Z,16.27
2019-02-28T15:52:33.348Z,16.27
2019-02-28T15:55:02.156Z,15.90
2019-02-28T15:57:26.842Z,16.70
2019-02-28T15:59:54.046Z,16.90
2019-02-28T16:02:19.680Z,16.63
2019-02-28T16:04:45.328Z,17.43
2019-02-28T16:07:11.118Z,18.20
2019-02-28T16:09:36.655Z,16.70
2019-02-28T16:12:04.106Z,16.93
2019-02-28T16:14:31.411Z,18.13
2019-02-28T16:17:00.261Z,17.73
2019-02-28T16:19:24.631Z,23.40
2019-02-28T16:21:50.353Z,17.40
2019-02-28T16:24:15.899Z,19.20
2019-02-28T16:26:41.433Z,16.60
2019-02-28T16:29:07.208Z,16.00
2019-02-28T16:31:32.772Z,15.17
2019-02-28T16:34:07.987Z,16.20
2019-02-28T16:36:26.601Z,18.43
2019-02-28T16:38:52.272Z,16.43
2019-02-28T16:41:17.827Z,23.80
2019-02-28T16:43:43.386Z,20.90
2019-02-28T16:46:12.441Z,22.73
2019-02-28T16:48:37.402Z,23.20
2019-02-28T16:51:03.971Z,22.57
2019-02-28T16:53:29.524Z,21.03
2019-02-28T16:55:55.319Z,20.50
2019-02-28T16:58:21.893Z,20.70
2019-02-28T17:00:48.321Z,22.27
2019-02-28T17:03:15.826Z,20.90
2019-02-28T17:05:41.414Z,18.23
2019-02-28T17:08:07.059Z,19.87
2019-02-28T17:10:33.988Z,21.07
2019-02-28T17:13:07.494Z,24.10
2019-02-28T17:15:34.927Z,24.53
2019-02-28T17:18:05.531Z,22.83
2019-02-28T17:20:31.085Z,23.30
2019-02-28T17:22:58.636Z,22.47
2019-02-28T17:25:24.099Z,18.97
2019-02-28T17:27:54.149Z,18.70
2019-02-28T17:30:24.312Z,17.97
2019-02-28T17:32:49.924Z,19.37
2019-02-28T17:35:15.600Z,19.23
2019-02-28T17:37:41.155Z,21.07
2019-02-28T17:40:08.619Z,18.87
2019-02-28T17:42:35.654Z,19.57
2019-02-28T17:45:02.221Z,17.60
2019-02-28T17:47:33.154Z,18.20
2019-02-28T17:53:07.115Z,19.10
2019-02-28T17:55:51.687Z,17.40
2019-02-28T17:58:19.124Z,17.43
2019-02-28T18:00:51.823Z,18.50
2019-02-28T18:03:18.031Z,18.10
2019-02-28T18:05:54.722Z,17.30
2019-02-28T18:08:22.173Z,18.83
2019-02-28T18:10:52.679Z,19.33
2019-02-28T18:13:35.306Z,19.87
2019-02-28T18:16:21.277Z,18.87
2019-02-28T18:18:50.191Z,18.10
2019-02-28T18:21:37.522Z,17.90
2019-02-28T18:24:06.771Z,17.67
2019-02-28T18:26:46.045Z,18.07
2019-02-28T18:29:16.480Z,17.10
2019-02-28T18:31:42.196Z,19.47
2019-02-28T18:34:07.749Z,20.70
2019-02-28T18:36:34.327Z,19.53
2019-02-28T18:38:59.883Z,17.00
2019-02-28T18:41:25.556Z,21.13
2019-02-28T18:43:51.140Z,19.10
2019-02-28T18:46:16.955Z,16.93
2019-02-28T18:48:42.735Z,18.17
2019-02-28T18:51:08.339Z,18.30
2019-02-28T18:53:34.349Z,19.60
2019-02-28T18:55:59.966Z,19.00
2019-02-28T18:58:25.555Z,19.53
2019-02-28T19:00:52.099Z,19.73
2019-02-28T19:03:17.647Z,22.00
2019-02-28T19:05:43.323Z,22.60
2019-02-28T19:08:08.899Z,27.30
2019-02-28T19:10:34.432Z,27.87
2019-02-28T19:13:00.947Z,30.53
2019-02-28T19:15:26.519Z,29.47
2019-02-28T19:17:52.177Z,28.43
2019-02-28T19:20:17.905Z,28.13
2019-02-28T19:22:43.440Z,26.00
2019-02-28T19:25:09.888Z,24.50
2019-02-28T19:27:35.829Z,21.70
2019-02-28T19:30:04.450Z,21.50
2019-02-28T19:32:30.204Z,21.60
2019-02-28T19:34:55.860Z,18.90
2019-02-28T19:37:21.482Z,19.83
2019-02-28T19:39:47.303Z,20.97
2019-02-28T19:42:13.883Z,22.23
2019-02-28T19:44:39.471Z,27.83
2019-02-28T19:47:05.061Z,20.93
2019-02-28T19:49:30.607Z,20.80
2019-02-28T19:51:56.176Z,18.87
2019-02-28T19:54:21.695Z,20.90
2019-02-28T19:56:47.433Z,20.50
2019-02-28T19:59:13.035Z,20.13
2019-02-28T20:01:38.592Z,20.13
2019-02-28T20:04:04.305Z,20.00
2019-02-28T20:06:29.836Z,21.00
2019-02-28T20:08:55.357Z,26.93
2019-02-28T20:11:21.202Z,30.67
2019-02-28T20:13:46.902Z,28.10
2019-02-28T20:16:12.666Z,20.83
2019-02-28T20:18:38.525Z,20.30
2019-02-28T20:21:05.228Z,21.17
2019-02-28T20:23:31.067Z,20.53
2019-02-28T20:25:57.105Z,21.30
2019-02-28T20:28:23.837Z,24.60
2019-02-28T20:30:50.096Z,23.93
2019-02-28T20:33:18.981Z,26.33
2019-02-28T20:35:46.848Z,25.97
2019-02-28T20:38:12.420Z,28.67
2019-02-28T20:40:41.134Z,29.30
2019-02-28T20:43:07.327Z,28.80
2019-02-28T20:45:33.384Z,29.30
2019-02-28T20:47:59.211Z,28.23
2019-02-28T20:50:32.535Z,29.77
2019-02-28T20:52:58.433Z,28.93
2019-02-28T20:55:27.701Z,26.93
2019-02-28T20:57:54.885Z,23.90
2019-02-28T21:03:01.689Z,20.27
2019-02-28T21:05:34.402Z,19.43
2019-02-28T21:08:01.238Z,19.03
2019-02-28T21:10:28.513Z,16.70
2019-02-28T21:15:44.008Z,17.40
2019-02-28T21:18:09.811Z,17.50
2019-02-28T21:20:35.910Z,17.00
2019-02-28T21:23:01.582Z,20.93
2019-02-28T21:25:29.207Z,18.00
2019-02-28T21:27:54.861Z,18.10
2019-02-28T21:30:23.950Z,18.10
2019-02-28T21:32:49.689Z,19.43
2019-02-28T21:35:16.086Z,17.63
2019-02-28T21:37:41.953Z,18.50
2019-02-28T21:40:09.087Z,17.17
2019-02-28T21:42:36.393Z,17.40
2019-02-28T21:45:03.909Z,19.23
2019-02-28T21:47:30.144Z,17.67
2019-02-28T21:49:56.572Z,16.50
2019-02-28T21:52:22.656Z,18.00
2019-02-28T21:54:48.644Z,17.07
2019-02-28T21:57:14.369Z,16.80
2019-02-28T21:59:39.903Z,15.90
2019-02-28T22:02:05.739Z,15.20
2019-02-28T22:04:31.604Z,15.83
2019-02-28T22:06:57.198Z,15.37
2019-02-28T22:09:22.828Z,15.67
2019-02-28T22:12:07.835Z,16.27
2019-02-28T22:14:33.899Z,16.17
2019-02-28T22:17:04.464Z,16.53
2019-02-28T22:19:30.461Z,16.80
2019-02-28T22:21:56.144Z,14.57
2019-02-28T22:24:21.888Z,16.33
2019-02-28T22:26:47.712Z,16.53
2019-02-28T22:29:13.353Z,16.83
2019-02-28T22:31:50.113Z,21.50
2019-02-28T22:34:18.079Z,18.77
2019-02-28T22:36:43.810Z,16.07
2019-02-28T22:39:18.171Z,17.23
2019-02-28T22:41:41.109Z,14.50
2019-02-28T22:44:07.006Z,16.33
2019-02-28T22:46:32.992Z,15.50
2019-02-28T22:48:58.705Z,16.27
2019-02-28T22:51:24.270Z,15.43
2019-02-28T22:53:49.921Z,16.97
2019-02-28T22:56:17.078Z,16.30
2019-02-28T22:58:42.968Z,16.60
2019-02-28T23:01:11.658Z,17.93
2019-02-28T23:03:38.057Z,18.17
2019-02-28T23:06:04.566Z,20.50
2019-02-28T23:08:30.426Z,17.47
2019-02-28T23:10:57.210Z,18.93
2019-02-28T23:13:23.300Z,20.90
2019-02-28T23:15:49.111Z,21.50
2019-02-28T23:18:15.061Z,21.27
2019-02-28T23:20:41.339Z,20.30
2019-02-28T23:23:07.218Z,20.60
2019-02-28T23:25:33.361Z,21.10
2019-02-28T23:28:09.562Z,19.40
2019-02-28T23:30:52.906Z,20.70
2019-02-28T23:33:18.817Z,20.70
2019-02-28T23:35:44.923Z,20.50
2019-02-28T23:38:10.554Z,20.40
2019-02-28T23:40:36.549Z,20.50
2019-02-28T23:43:02.406Z,20.73
2019-02-28T23:45:27.987Z,19.70
2019-02-28T23:47:53.577Z,18.03
2019-02-28T23:50:19.486Z,19.70
2019-02-28T23:52:45.134Z,18.40
2019-02-28T23:55:10.696Z,16.87
2019-02-28T23:57:36.946Z,18.00
